Time;durP1;ratioP1;P1;durP2;ratioP2;P2;SDS_P1;SDS_P2;PMS_P1;PMS_P2;Temp;Humidity;BMP_temperature;BMP_pressure;BME280_temperature;BME280_humidity;BME280_pressure;Samples;Min_cycle;Max_cycle;Signal;HPM_P1;HPM_P2
2021/07/10 00:01:07;;;;;;;8.35;3.00;;;29.20;51.70;;;;;;5087232;28;20055;-62
2021/07/10 00:03:33;;;;;;;13.57;3.70;;;29.20;51.70;;;;;;5092646;28;20069;-61
2021/07/10 00:05:58;;;;;;;10.45;3.50;;;29.20;51.70;;;;;;5091703;28;20027;-62
2021/07/10 00:08:24;;;;;;;6.95;2.75;;;29.20;51.80;;;;;;5086443;28;20427;-62
2021/07/10 00:10:51;;;;;;;7.93;3.38;;;29.20;51.80;;;;;;5111713;28;20047;-62
2021/07/10 00:13:17;;;;;;;8.85;3.35;;;29.20;51.70;;;;;;5112104;28;20023;-61
2021/07/10 00:15:43;;;;;;;6.10;2.95;;;29.20;51.70;;;;;;5093998;28;20054;-61
2021/07/10 00:18:09;;;;;;;11.32;3.80;;;29.20;51.70;;;;;;5093497;28;20034;-62
2021/07/10 00:20:34;;;;;;;8.73;3.00;;;29.20;51.40;;;;;;5112061;28;20227;-62
2021/07/10 00:23:01;;;;;;;8.55;3.10;;;29.20;51.50;;;;;;5111550;28;20094;-62
2021/07/10 00:25:27;;;;;;;9.05;3.95;;;29.20;51.50;;;;;;5111785;28;20027;-62
2021/07/10 00:27:53;;;;;;;8.55;3.20;;;29.20;51.50;;;;;;5103866;28;20112;-62
2021/07/10 00:30:20;;;;;;;6.72;3.55;;;29.20;51.30;;;;;;5102659;28;20518;-62
2021/07/10 00:32:48;;;;;;;9.35;2.90;;;29.20;51.40;;;;;;5111385;28;20375;-63
2021/07/10 00:35:14;;;;;;;10.55;3.47;;;29.20;51.50;;;;;;5093393;28;20118;-62
2021/07/10 00:37:41;;;;;;;9.07;3.47;;;29.20;51.50;;;;;;5111722;28;20062;-62
2021/07/10 00:40:09;;;;;;;6.15;2.78;;;29.20;51.60;;;;;;5111434;28;20374;-62
2021/07/10 00:42:36;;;;;;;12.23;3.85;;;29.20;51.60;;;;;;5111758;28;20034;-62
2021/07/10 00:45:05;;;;;;;9.15;3.15;;;29.20;51.80;;;;;;5111373;28;20024;-62
2021/07/10 00:47:31;;;;;;;10.48;3.92;;;29.20;52.30;;;;;;5092921;28;20030;-62
2021/07/10 00:49:57;;;;;;;10.98;4.10;;;29.20;51.70;;;;;;5093342;28;20038;-62
2021/07/10 00:52:23;;;;;;;12.55;4.22;;;29.20;51.80;;;;;;5109114;28;20541;-61
2021/07/10 00:54:49;;;;;;;10.60;3.88;;;29.20;51.90;;;;;;5111102;28;20035;-62
2021/07/10 00:57:16;;;;;;;12.40;4.13;;;29.20;51.90;;;;;;5111491;28;20063;-62
2021/07/10 00:59:42;;;;;;;9.82;4.00;;;29.20;51.90;;;;;;5111298;28;20420;-62
2021/07/10 01:02:09;;;;;;;8.35;3.75;;;29.20;51.80;;;;;;5111100;28;20170;-61
2021/07/10 01:04:35;;;;;;;13.63;4.40;;;29.20;51.90;;;;;;5111242;28;20419;-61
2021/07/10 01:07:01;;;;;;;9.27;3.92;;;29.20;51.90;;;;;;5111126;28;20066;-61
2021/07/10 01:09:27;;;;;;;9.32;3.40;;;29.10;51.80;;;;;;5111191;28;20032;-61
2021/07/10 01:11:53;;;;;;;10.40;3.90;;;29.10;51.80;;;;;;5111303;28;20034;-61
2021/07/10 01:14:20;;;;;;;11.38;3.78;;;29.10;51.80;;;;;;5111063;28;20074;-61
2021/07/10 01:16:46;;;;;;;13.48;4.28;;;29.10;51.80;;;;;;5110845;28;20386;-61
2021/07/10 01:19:12;;;;;;;11.88;3.50;;;29.10;51.80;;;;;;5109142;28;20070;-62
2021/07/10 01:21:39;;;;;;;16.67;3.80;;;29.10;51.90;;;;;;5111114;28;20437;-61
2021/07/10 01:24:05;;;;;;;12.95;4.22;;;29.10;52.00;;;;;;5110909;28;20027;-61
2021/07/10 01:26:31;;;;;;;10.10;3.38;;;29.10;52.00;;;;;;5092814;28;20020;-61
2021/07/10 01:28:57;;;;;;;8.45;3.75;;;29.00;52.00;;;;;;5111131;28;20073;-61
2021/07/10 01:31:23;;;;;;;10.10;3.83;;;29.00;52.00;;;;;;5110896;28;20038;-62
2021/07/10 01:33:49;;;;;;;10.68;3.97;;;29.00;52.00;;;;;;5110700;28;20408;-61
2021/07/10 01:36:15;;;;;;;6.90;3.85;;;29.00;52.10;;;;;;5110737;28;20035;-61
2021/07/10 01:38:41;;;;;;;9.48;3.35;;;29.00;52.00;;;;;;5111243;28;20065;-61
2021/07/10 01:41:07;;;;;;;9.32;3.90;;;29.00;52.00;;;;;;5111396;28;20040;-61
2021/07/10 01:43:33;;;;;;;14.15;4.25;;;29.00;51.90;;;;;;5105268;28;20024;-61
2021/07/10 01:45:59;;;;;;;12.95;4.68;;;29.00;51.90;;;;;;5094232;28;20036;-61
2021/07/10 01:48:25;;;;;;;11.77;4.13;;;29.00;51.70;;;;;;5094240;28;20020;-61
2021/07/10 01:50:51;;;;;;;9.98;4.22;;;29.00;51.80;;;;;;5075882;28;20028;-61
2021/07/10 01:53:17;;;;;;;9.48;3.30;;;29.00;51.90;;;;;;5075795;28;20455;-62
2021/07/10 01:55:44;;;;;;;13.48;4.13;;;29.00;51.80;;;;;;5094452;28;20032;-63
2021/07/10 01:58:10;;;;;;;9.90;4.70;;;29.00;51.60;;;;;;5094282;28;20020;-61
2021/07/10 02:00:43;;;;;;;9.43;4.13;;;29.00;51.60;;;;;;5094184;28;20059;-61
2021/07/10 02:03:10;;;;;;;11.32;3.70;;;28.90;51.60;;;;;;5094164;28;20035;-61
2021/07/10 02:05:36;;;;;;;9.30;4.07;;;28.90;51.50;;;;;;5093694;28;20024;-62
2021/07/10 02:08:03;;;;;;;7.00;3.25;;;28.90;51.50;;;;;;5093962;28;20050;-62
2021/07/10 02:10:31;;;;;;;5.25;2.45;;;28.90;51.60;;;;;;5092564;28;20387;-60
2021/07/10 02:13:04;;;;;;;15.60;4.82;;;28.90;51.60;;;;;;5095040;28;20016;-61
2021/07/10 02:15:30;;;;;;;8.40;3.28;;;28.90;51.40;;;;;;5093829;28;20032;-61
2021/07/10 02:17:57;;;;;;;9.77;3.33;;;28.90;51.50;;;;;;5093744;28;20047;-61
2021/07/10 02:20:26;;;;;;;10.45;3.15;;;28.90;51.40;;;;;;5093364;28;20470;-61
2021/07/10 02:22:53;;;;;;;9.20;2.92;;;28.90;51.30;;;;;;5093613;28;20025;-61
2021/07/10 02:25:21;;;;;;;6.40;3.17;;;28.90;51.30;;;;;;5093390;28;20028;-61
2021/07/10 02:27:48;;;;;;;7.00;2.97;;;28.90;51.30;;;;;;5075793;28;20027;-61
2021/07/10 02:30:17;;;;;;;8.20;3.15;;;28.90;51.40;;;;;;5093642;28;20093;-61
2021/07/10 02:32:45;;;;;;;9.52;3.17;;;28.90;51.20;;;;;;5095303;28;20102;-61
2021/07/10 02:35:12;;;;;;;8.77;2.90;;;28.90;51.10;;;;;;5114105;28;20024;-61
2021/07/10 02:37:39;;;;;;;10.20;4.28;;;28.90;51.10;;;;;;5114137;28;20065;-61
2021/07/10 02:40:08;;;;;;;9.60;3.55;;;28.80;51.70;;;;;;5113497;28;20040;-60
2021/07/10 02:42:35;;;;;;;5.72;2.75;;;28.80;51.10;;;;;;5113604;28;20086;-60
2021/07/10 02:45:03;;;;;;;5.85;2.83;;;28.90;51.30;;;;;;5095345;28;20371;-61
2021/07/10 02:47:29;;;;;;;5.10;2.63;;;28.90;51.20;;;;;;5113458;28;20394;-61
2021/07/10 02:49:55;;;;;;;8.07;4.18;;;28.90;51.20;;;;;;5113338;28;20074;-60
2021/07/10 02:52:21;;;;;;;9.85;3.28;;;28.90;51.00;;;;;;5113401;28;20047;-61
2021/07/10 02:54:47;;;;;;;8.93;3.15;;;28.90;51.10;;;;;;5113444;28;20028;-63
2021/07/10 02:57:13;;;;;;;8.57;3.65;;;28.90;51.00;;;;;;5113350;28;20024;-61
2021/07/10 02:59:40;;;;;;;6.25;2.80;;;28.80;50.90;;;;;;5080667;28;20044;-61
2021/07/10 03:02:08;;;;;;;9.85;3.42;;;28.80;50.90;;;;;;5074841;28;20040;-61
2021/07/10 03:04:35;;;;;;;12.27;3.42;;;28.80;51.00;;;;;;5074886;28;20093;-61
2021/07/10 03:07:01;;;;;;;11.05;3.83;;;28.70;51.00;;;;;;5092975;28;20058;-62
2021/07/10 03:09:27;;;;;;;13.20;4.15;;;28.70;51.10;;;;;;5093111;28;20016;-61
2021/07/10 03:11:53;;;;;;;9.98;3.65;;;28.60;51.20;;;;;;5092979;28;20024;-61
2021/07/10 03:14:18;;;;;;;9.85;3.47;;;28.60;51.30;;;;;;5092855;28;20085;-62
2021/07/10 03:16:44;;;;;;;7.63;3.58;;;28.60;51.40;;;;;;5092863;28;20032;-61
2021/07/10 03:19:10;;;;;;;10.35;3.92;;;28.70;51.40;;;;;;5092580;28;20031;-61
2021/07/10 03:21:37;;;;;;;18.63;4.07;;;28.70;51.40;;;;;;5097939;28;20051;-62
2021/07/10 03:24:03;;;;;;;11.13;3.80;;;28.70;51.30;;;;;;5093859;28;20046;-61
2021/07/10 03:26:29;;;;;;;9.00;3.70;;;28.60;51.30;;;;;;5094829;28;20055;-61
2021/07/10 03:28:55;;;;;;;10.88;4.15;;;28.60;51.20;;;;;;5095620;28;20459;-61
2021/07/10 03:31:21;;;;;;;16.38;3.85;;;28.60;51.30;;;;;;5092408;28;20028;-63
2021/07/10 03:33:47;;;;;;;13.75;4.53;;;28.60;51.20;;;;;;5095368;28;20028;-61
2021/07/10 03:36:13;;;;;;;11.57;3.88;;;28.60;51.10;;;;;;5074000;28;20514;-62
2021/07/10 03:38:43;;;;;;;10.98;3.13;;;28.50;51.20;;;;;;5092444;28;20055;-61
2021/07/10 03:41:10;;;;;;;6.13;2.58;;;28.50;51.30;;;;;;5092246;28;20073;-61
2021/07/10 03:43:37;;;;;;;9.65;3.08;;;28.50;51.40;;;;;;5092017;28;20451;-61
2021/07/10 03:46:03;;;;;;;11.30;3.28;;;28.50;51.30;;;;;;5092603;28;20066;-61
2021/07/10 03:48:30;;;;;;;8.95;2.80;;;28.50;51.20;;;;;;5099360;28;20374;-61
2021/07/10 03:50:58;;;;;;;6.20;2.78;;;28.50;51.20;;;;;;5105889;28;20047;-61
2021/07/10 03:53:24;;;;;;;11.02;3.95;;;28.50;51.30;;;;;;5112257;28;20095;-61
2021/07/10 03:55:50;;;;;;;5.75;2.55;;;28.50;51.10;;;;;;5112619;28;20028;-61
2021/07/10 03:58:16;;;;;;;8.98;3.25;;;28.50;51.10;;;;;;5094246;28;20364;-62
2021/07/10 04:00:42;;;;;;;7.03;2.58;;;28.50;51.20;;;;;;5112182;28;20120;-61
2021/07/10 04:03:09;;;;;;;7.22;3.30;;;28.60;51.20;;;;;;5112257;28;20030;-61
2021/07/10 04:05:35;;;;;;;7.13;2.92;;;28.60;51.10;;;;;;5111521;28;20115;-62
2021/07/10 04:08:01;;;;;;;6.97;2.83;;;28.60;51.10;;;;;;5111892;28;20059;-61
2021/07/10 04:10:28;;;;;;;15.27;3.92;;;28.60;51.00;;;;;;5112031;28;20020;-62
2021/07/10 04:12:54;;;;;;;8.32;3.22;;;28.60;50.60;;;;;;5111926;28;20050;-62
2021/07/10 04:15:20;;;;;;;9.82;2.85;;;28.60;50.60;;;;;;5092753;28;20482;-62
2021/07/10 04:17:47;;;;;;;6.50;2.88;;;28.60;50.70;;;;;;5111549;28;20027;-63
2021/07/10 04:20:16;;;;;;;6.43;2.55;;;28.60;50.80;;;;;;5091254;28;20063;-62
2021/07/10 04:22:42;;;;;;;8.48;3.55;;;28.60;50.80;;;;;;5091561;28;20067;-62
2021/07/10 04:25:15;;;;;;;9.13;2.80;;;28.60;50.70;;;;;;5094062;28;20051;-62
2021/07/10 04:27:43;;;;;;;9.25;2.92;;;28.60;50.70;;;;;;5110781;28;20019;-61
2021/07/10 04:30:11;;;;;;;7.18;2.88;;;28.60;50.70;;;;;;5074172;28;20435;-62
2021/07/10 04:32:37;;;;;;;8.00;2.63;;;28.60;50.80;;;;;;5091357;28;20028;-62
2021/07/10 04:35:05;;;;;;;9.35;3.53;;;28.60;50.60;;;;;;5091449;28;20028;-61
2021/07/10 04:37:31;;;;;;;9.90;2.97;;;28.70;50.60;;;;;;5090737;28;20367;-60
2021/07/10 04:39:57;;;;;;;17.73;3.50;;;28.60;50.30;;;;;;5105279;28;20023;-62
2021/07/10 04:42:24;;;;;;;7.90;2.42;;;28.60;50.40;;;;;;5111684;28;20031;-64
2021/07/10 04:44:50;;;;;;;9.88;3.88;;;28.60;51.10;;;;;;5111832;28;20032;-60
2021/07/10 04:47:17;;;;;;;7.07;3.15;;;28.60;50.40;;;;;;5101152;28;20031;-61
2021/07/10 04:49:43;;;;;;;8.15;3.13;;;28.60;50.40;;;;;;5091126;28;20020;-60
2021/07/10 04:52:09;;;;;;;6.43;3.05;;;28.50;50.40;;;;;;5091120;28;20036;-60
2021/07/10 04:54:35;;;;;;;5.53;2.45;;;28.60;50.50;;;;;;5091325;28;20098;-60
2021/07/10 04:57:02;;;;;;;8.27;5.68;;;28.60;50.60;;;;;;5080426;28;20044;-62
2021/07/10 04:59:28;;;;;;;8.57;3.60;;;28.60;50.50;;;;;;5105126;28;20474;-61
2021/07/10 05:01:54;;;;;;;7.28;4.53;;;28.60;50.30;;;;;;5093084;28;20109;-63
2021/07/10 05:04:20;;;;;;;9.65;4.10;;;28.60;50.40;;;;;;5102691;28;20446;-62
2021/07/10 05:06:46;;;;;;;12.52;4.55;;;28.50;50.10;;;;;;5092557;28;20023;-62
2021/07/10 05:09:12;;;;;;;13.23;3.47;;;28.50;50.20;;;;;;5111099;28;20107;-61
2021/07/10 05:11:38;;;;;;;8.18;3.97;;;28.40;50.20;;;;;;5111020;28;20545;-61
2021/07/10 05:14:04;;;;;;;7.95;3.00;;;28.40;50.40;;;;;;5110960;28;20024;-61
2021/07/10 05:16:30;;;;;;;15.02;4.53;;;28.40;50.50;;;;;;5108174;28;20027;-60
2021/07/10 05:18:56;;;;;;;5.43;2.88;;;28.40;50.50;;;;;;5095055;28;20028;-61
2021/07/10 05:21:23;;;;;;;8.43;4.43;;;28.30;50.60;;;;;;5095277;28;20038;-61
2021/07/10 05:23:49;;;;;;;5.32;3.58;;;28.30;50.70;;;;;;5094604;28;20035;-60
2021/07/10 05:26:16;;;;;;;5.93;2.83;;;28.30;50.60;;;;;;5094844;28;20031;-60
2021/07/10 05:28:42;;;;;;;11.20;4.10;;;28.30;50.60;;;;;;5102263;28;20034;-61
2021/07/10 05:31:08;;;;;;;9.00;3.65;;;28.30;50.60;;;;;;5097233;28;20027;-61
2021/07/10 05:33:34;;;;;;;11.52;4.10;;;28.20;50.70;;;;;;5097071;28;20442;-61
2021/07/10 05:36:00;;;;;;;7.85;3.75;;;28.20;50.70;;;;;;5114740;28;20024;-61
2021/07/10 05:38:26;;;;;;;8.32;3.60;;;28.20;50.70;;;;;;5079999;28;20028;-62
2021/07/10 05:40:53;;;;;;;11.48;3.88;;;28.20;50.70;;;;;;5094592;28;20043;-61
2021/07/10 05:43:23;;;;;;;8.45;4.32;;;28.20;50.80;;;;;;5114952;28;20055;-61
2021/07/10 05:45:51;;;;;;;15.02;12.50;;;28.10;50.80;;;;;;5096645;28;20474;-62
2021/07/10 05:48:18;;;;;;;12.05;10.10;;;28.10;50.90;;;;;;5114522;28;20036;-61
2021/07/10 05:50:44;;;;;;;11.63;8.70;;;28.10;50.90;;;;;;5114447;28;20035;-61
2021/07/10 05:53:10;;;;;;;10.15;6.85;;;28.10;50.90;;;;;;5094974;28;20596;-62
2021/07/10 05:55:36;;;;;;;10.80;7.40;;;28.10;50.90;;;;;;5114653;28;20100;-61
2021/07/10 05:58:03;;;;;;;8.43;3.92;;;28.10;50.90;;;;;;5114354;28;20114;-61
2021/07/10 06:00:31;;;;;;;8.57;3.85;;;28.20;50.70;;;;;;5114732;28;20139;-62
2021/07/10 06:02:57;;;;;;;14.45;3.40;;;28.20;50.60;;;;;;5114312;28;20020;-61
2021/07/10 06:05:25;;;;;;;8.80;4.20;;;28.20;50.50;;;;;;5110943;27;20063;-61
2021/07/10 06:07:52;;;;;;;10.77;4.20;;;28.20;50.50;;;;;;5113381;27;20042;-61
2021/07/10 06:10:19;;;;;;;12.55;3.83;;;28.20;50.40;;;;;;5108846;28;20086;-61
2021/07/10 06:12:45;;;;;;;10.68;3.42;;;28.30;50.40;;;;;;5094912;28;20024;-61
2021/07/10 06:15:12;;;;;;;10.13;3.33;;;28.20;50.30;;;;;;5095004;28;20046;-61
2021/07/10 06:17:39;;;;;;;15.85;3.35;;;28.20;50.30;;;;;;5109274;28;20026;-61
2021/07/10 06:20:07;;;;;;;7.45;3.15;;;28.20;50.20;;;;;;5109908;28;20054;-62
2021/07/10 06:22:34;;;;;;;11.88;3.05;;;28.20;50.30;;;;;;5098562;28;20032;-62
2021/07/10 06:25:00;;;;;;;7.03;2.45;;;28.10;50.20;;;;;;5093774;28;20024;-62
2021/07/10 06:27:26;;;;;;;7.57;3.17;;;28.20;50.30;;;;;;5093724;28;20032;-61
2021/07/10 06:29:52;;;;;;;12.77;3.35;;;28.10;50.10;;;;;;5074317;28;20478;-62
2021/07/10 06:32:18;;;;;;;15.27;3.45;;;28.20;50.30;;;;;;5091631;28;20502;-62
2021/07/10 06:34:44;;;;;;;14.05;3.55;;;28.20;50.40;;;;;;5091771;28;20032;-62
2021/07/10 06:37:10;;;;;;;7.07;3.35;;;28.20;50.30;;;;;;5091467;28;20523;-62
2021/07/10 06:39:36;;;;;;;7.97;3.35;;;28.20;50.40;;;;;;5091397;28;20020;-62
2021/07/10 06:42:03;;;;;;;8.55;3.45;;;28.20;50.30;;;;;;5092112;28;20024;-62
2021/07/10 06:44:29;;;;;;;8.50;3.58;;;28.20;50.20;;;;;;5092546;28;20024;-64
2021/07/10 06:46:55;;;;;;;9.82;4.13;;;28.30;50.30;;;;;;5092602;28;20024;-57
2021/07/10 06:49:21;;;;;;;9.55;3.20;;;28.30;50.30;;;;;;5098914;28;20453;-56
2021/07/10 06:51:48;;;;;;;8.55;3.67;;;28.30;50.20;;;;;;5111466;28;20367;-55
2021/07/10 06:54:14;;;;;;;11.48;3.67;;;28.30;50.20;;;;;;5107539;28;20018;-56
2021/07/10 06:56:40;;;;;;;9.00;2.95;;;28.40;50.30;;;;;;5076521;28;20024;-55
2021/07/10 06:59:06;;;;;;;10.35;3.17;;;28.30;50.10;;;;;;5092766;28;20031;-55
2021/07/10 07:01:32;;;;;;;8.18;3.05;;;28.40;50.10;;;;;;5092578;28;20044;-56
2021/07/10 07:03:58;;;;;;;9.85;2.80;;;28.40;50.10;;;;;;5093534;28;20509;-54
2021/07/10 07:06:24;;;;;;;6.95;2.90;;;28.50;50.30;;;;;;5074819;28;20035;-56
2021/07/10 07:08:50;;;;;;;12.70;4.22;;;28.50;50.20;;;;;;5092539;28;20261;-57
2021/07/10 07:11:16;;;;;;;7.40;4.05;;;28.50;50.10;;;;;;5112889;28;20028;-56
2021/07/10 07:13:42;;;;;;;14.25;5.05;;;28.50;49.90;;;;;;5113116;28;20020;-56
2021/07/10 07:16:08;;;;;;;7.88;4.30;;;28.60;50.00;;;;;;5111107;28;20027;-56
2021/07/10 07:18:34;;;;;;;14.52;3.72;;;28.60;49.90;;;;;;5112931;28;20036;-56
2021/07/10 07:21:00;;;;;;;10.25;3.30;;;28.60;49.70;;;;;;5113087;28;20058;-56
2021/07/10 07:23:26;;;;;;;10.82;3.25;;;28.70;49.60;;;;;;5113002;28;20027;-56
2021/07/10 07:25:52;;;;;;;11.90;2.90;;;28.70;49.40;;;;;;5112862;28;20393;-56
2021/07/10 07:28:17;;;;;;;8.52;3.30;;;28.70;49.50;;;;;;5112738;28;20023;-55
2021/07/10 07:30:43;;;;;;;25.27;3.22;;;28.70;49.50;;;;;;5112638;28;20023;-55
2021/07/10 07:33:09;;;;;;;9.07;3.03;;;28.70;49.50;;;;;;5107277;28;20027;-56
2021/07/10 07:35:36;;;;;;;9.48;4.00;;;28.80;49.60;;;;;;5110056;28;20487;-56
2021/07/10 07:38:02;;;;;;;9.18;2.97;;;28.80;49.50;;;;;;5099524;28;20048;-61
2021/07/10 07:40:28;;;;;;;6.22;2.95;;;28.80;49.50;;;;;;5092829;28;20032;-55
2021/07/10 07:42:55;;;;;;;6.95;2.60;;;28.90;49.60;;;;;;5102504;28;20459;-55
2021/07/10 07:45:22;;;;;;;7.47;2.80;;;28.90;49.40;;;;;;5103355;28;20020;-56
2021/07/10 07:47:49;;;;;;;16.75;5.00;;;29.00;49.40;;;;;;5093981;28;20437;-57
2021/07/10 07:50:16;;;;;;;11.05;8.80;;;29.10;49.30;;;;;;5094044;28;20043;-55
2021/07/10 07:52:43;;;;;;;9.93;6.35;;;29.10;49.20;;;;;;5099313;28;20073;-55
2021/07/10 07:55:11;;;;;;;11.80;4.57;;;29.20;49.20;;;;;;5108987;28;20463;-55
2021/07/10 07:57:38;;;;;;;9.75;4.45;;;29.20;48.90;;;;;;5093791;28;20027;-55
2021/07/10 08:00:12;;;;;;;10.80;4.50;;;29.30;48.90;;;;;;5110354;28;20497;-56
2021/07/10 08:02:38;;;;;;;7.72;2.78;;;29.30;48.60;;;;;;5111941;28;20024;-56
2021/07/10 08:05:05;;;;;;;7.35;3.28;;;29.40;48.30;;;;;;5095580;28;20028;-57
2021/07/10 08:07:32;;;;;;;6.75;2.83;;;29.40;48.00;;;;;;5092726;28;20039;-55
2021/07/10 08:09:57;;;;;;;8.85;2.35;;;29.50;47.10;;;;;;5105008;28;20027;-56
2021/07/10 08:12:23;;;;;;;6.35;2.47;;;29.50;46.70;;;;;;5101421;28;20031;-55
2021/07/10 08:14:49;;;;;;;8.68;2.17;;;29.60;46.90;;;;;;5106287;28;20478;-55
2021/07/10 08:17:15;;;;;;;4.07;2.15;;;29.70;46.60;;;;;;5102078;28;20032;-54
2021/07/10 08:19:41;;;;;;;6.05;2.30;;;29.60;46.20;;;;;;5094758;28;20016;-55
2021/07/10 08:22:08;;;;;;;6.18;2.10;;;29.70;46.60;;;;;;5111552;28;20039;-56
2021/07/10 08:24:34;;;;;;;5.43;1.75;;;29.80;46.10;;;;;;5109627;28;20355;-55
2021/07/10 08:26:59;;;;;;;4.05;2.15;;;29.90;46.30;;;;;;5111906;28;20031;-55
2021/07/10 08:29:25;;;;;;;8.43;3.17;;;29.90;46.10;;;;;;5097282;28;20370;-56
2021/07/10 08:31:51;;;;;;;8.63;3.00;;;29.90;46.00;;;;;;5091039;28;20028;-58
2021/07/10 08:34:17;;;;;;;5.93;3.10;;;29.90;45.70;;;;;;5078559;28;20020;-61
2021/07/10 08:36:43;;;;;;;5.65;2.75;;;30.00;45.80;;;;;;5091375;28;20034;-56
2021/07/10 08:39:09;;;;;;;10.27;3.28;;;30.10;45.70;;;;;;5091546;28;20016;-56
2021/07/10 08:41:36;;;;;;;11.05;3.70;;;30.10;45.70;;;;;;5091231;28;20036;-67
2021/07/10 08:44:03;;;;;;;6.70;2.15;;;30.20;45.20;;;;;;5108662;28;20035;-56
2021/07/10 08:46:29;;;;;;;61.78;56.20;;;30.20;45.30;;;;;;5111303;28;20039;-60
2021/07/10 08:48:57;;;;;;;15.82;14.00;;;30.20;45.10;;;;;;5082233;28;20085;-54
2021/07/10 08:51:23;;;;;;;14.98;10.80;;;30.30;44.70;;;;;;5109130;28;20070;-54
2021/07/10 08:53:49;;;;;;;11.77;7.30;;;30.30;44.80;;;;;;5108620;28;20519;-53
2021/07/10 08:56:15;;;;;;;5.95;3.40;;;30.30;44.60;;;;;;5102598;28;20027;-53
2021/07/10 08:58:42;;;;;;;4.30;2.20;;;30.30;44.40;;;;;;5107107;28;20031;-53
2021/07/10 09:01:09;;;;;;;3.40;2.70;;;30.40;44.30;;;;;;5090944;28;20044;-54
2021/07/10 09:03:39;;;;;;;7.47;2.85;;;30.40;44.00;;;;;;5093955;28;20044;-55
2021/07/10 09:06:06;;;;;;;4.45;2.67;;;30.40;44.10;;;;;;5098122;28;20032;-54
2021/07/10 09:08:32;;;;;;;5.80;3.17;;;30.40;44.30;;;;;;5109707;28;20024;-54
2021/07/10 09:11:22;;;;;;;6.20;2.40;;;30.50;44.30;;;;;;5092778;28;20030;-54
2021/07/10 09:13:50;;;;;;;6.68;2.42;;;30.50;43.80;;;;;;5107827;28;20385;-54
2021/07/10 09:16:19;;;;;;;5.38;2.80;;;30.50;44.00;;;;;;5088370;28;20035;-54
2021/07/10 09:18:59;;;;;;;3.70;1.95;;;30.60;44.00;;;;;;5090428;28;20024;-54
2021/07/10 09:21:48;;;;;;;6.88;2.25;;;30.60;43.70;;;;;;5072713;28;20046;-54
2021/07/10 09:24:17;;;;;;;4.43;1.47;;;30.60;43.70;;;;;;5101308;28;20028;-55
2021/07/10 09:26:47;;;;;;;3.83;1.70;;;30.70;43.60;;;;;;5088974;28;20667;-55
2021/07/10 09:29:17;;;;;;;4.22;1.70;;;30.70;43.70;;;;;;5090472;28;20024;-55
2021/07/10 09:31:46;;;;;;;3.53;1.80;;;30.70;43.30;;;;;;5106598;28;20033;-55
2021/07/10 09:34:26;;;;;;;4.05;1.63;;;30.80;43.10;;;;;;5110681;28;20026;-55
2021/07/10 09:37:00;;;;;;;8.27;2.38;;;30.80;43.30;;;;;;5110719;28;20474;-54
2021/07/10 09:39:33;;;;;;;4.75;2.00;;;30.80;42.70;;;;;;5108085;28;20032;-54
2021/07/10 09:42:00;;;;;;;4.93;2.28;;;30.80;42.80;;;;;;5110746;28;20031;-54
2021/07/10 09:44:48;;;;;;;7.30;2.42;;;30.90;43.00;;;;;;5105152;28;20023;-59
2021/07/10 09:47:17;;;;;;;8.60;2.67;;;30.90;42.80;;;;;;5088280;28;20027;-54
2021/07/10 09:49:46;;;;;;;6.03;3.05;;;30.90;42.50;;;;;;5105297;28;20463;-55
2021/07/10 09:52:17;;;;;;;10.95;3.17;;;30.90;42.10;;;;;;5093446;28;20501;-62
2021/07/10 09:54:54;;;;;;;12.27;3.38;;;30.90;42.50;;;;;;5075889;28;20112;-63
2021/07/10 09:57:28;;;;;;;5.53;2.25;;;30.90;42.30;;;;;;5094404;28;20020;-61
2021/07/10 10:00:05;;;;;;;6.85;2.10;;;30.90;42.60;;;;;;5084386;28;20123;-62
2021/07/10 10:02:33;;;;;;;4.25;2.13;;;30.90;42.50;;;;;;5084193;28;20773;-70
2021/07/10 10:05:09;;;;;;;7.80;2.25;;;30.90;42.60;;;;;;5086084;28;20052;-67
2021/07/10 12:17:53;;;;;;;5.68;2.30;;;30.50;44.60;;;;;;5042273;28;20453;-66
2021/07/10 12:20:22;;;;;;;9.30;2.10;;;30.40;44.60;;;;;;5013318;28;20036;-65
2021/07/10 12:23:00;;;;;;;4.90;2.30;;;30.40;44.70;;;;;;5004262;28;20487;-74
2021/07/10 12:25:29;;;;;;;7.15;2.42;;;30.30;44.70;;;;;;4995943;28;20037;-72
2021/07/10 12:28:04;;;;;;;6.55;2.25;;;30.40;45.00;;;;;;4994943;28;20021;-65
2021/07/10 12:30:44;;;;;;;14.27;2.08;;;30.40;44.70;;;;;;5028601;28;20033;-61
2021/07/10 12:33:31;;;;;;;7.43;2.42;;;30.50;44.80;;;;;;5021229;28;20601;-61
2021/07/10 12:36:10;;;;;;;9.73;2.53;;;30.60;45.10;;;;;;5013568;28;20387;-61
2021/07/10 12:38:48;;;;;;;5.72;2.17;;;30.70;44.90;;;;;;5030386;28;20029;-61
2021/07/10 12:41:28;;;;;;;5.13;2.45;;;30.80;44.40;;;;;;5030844;28;20514;-61
2021/07/10 12:44:06;;;;;;;6.57;2.60;;;30.90;44.20;;;;;;5013197;28;20061;-61
2021/07/10 12:46:47;;;;;;;9.02;2.83;;;31.00;44.10;;;;;;4997935;28;20025;-61
2021/07/10 12:49:14;;;;;;;6.53;3.03;;;31.10;44.00;;;;;;5019332;28;20388;-61
2021/07/10 12:51:40;;;;;;;5.03;2.00;;;31.10;44.00;;;;;;5013447;28;20033;-61
2021/07/10 12:54:41;;;;;;;5.68;2.25;;;31.20;44.10;;;;;;5030503;28;20026;-61
2021/07/10 12:57:13;;;;;;;4.45;1.80;;;31.20;44.30;;;;;;5010483;28;20030;-61
2021/07/10 12:59:54;;;;;;;7.38;2.58;;;31.30;44.00;;;;;;5030850;28;20075;-61
2021/07/10 13:02:24;;;;;;;5.28;1.77;;;31.30;43.90;;;;;;5030014;28;20520;-61
2021/07/10 13:04:52;;;;;;;6.63;2.55;;;31.40;43.90;;;;;;5018143;28;20116;-61
2021/07/10 13:07:29;;;;;;;5.53;1.95;;;31.40;43.90;;;;;;5028970;28;20097;-61
2021/07/10 13:09:56;;;;;;;6.78;2.72;;;31.50;44.00;;;;;;5028500;28;20024;-61
2021/07/10 13:12:45;;;;;;;6.53;2.75;;;31.50;43.90;;;;;;5013103;28;20025;-60
2021/07/10 13:15:14;;;;;;;8.37;2.40;;;31.50;44.10;;;;;;5031273;28;20025;-61
2021/07/10 13:17:40;;;;;;;4.57;2.28;;;31.50;44.10;;;;;;5012288;28;20305;-61
2021/07/10 13:20:29;;;;;;;5.38;2.25;;;31.40;44.20;;;;;;5012657;28;20053;-61
2021/07/10 13:22:56;;;;;;;4.22;2.28;;;31.40;44.30;;;;;;5047273;28;20033;-61
2021/07/10 13:25:30;;;;;;;4.07;2.28;;;31.40;44.20;;;;;;5032035;28;20033;-60
2021/07/10 13:27:56;;;;;;;5.25;2.22;;;31.40;44.20;;;;;;5050189;28;20083;-61
2021/07/10 13:30:22;;;;;;;7.55;2.00;;;31.40;44.20;;;;;;5050538;28;20041;-61
2021/07/10 13:32:56;;;;;;;8.68;2.10;;;31.40;44.10;;;;;;5032075;28;20025;-61
2021/07/10 13:35:25;;;;;;;4.45;1.85;;;31.40;44.20;;;;;;5050538;28;20049;-61
2021/07/10 13:37:52;;;;;;;11.65;3.15;;;31.40;44.40;;;;;;5051914;28;20040;-61
2021/07/10 13:40:21;;;;;;;4.38;2.10;;;31.40;44.30;;;;;;5054307;28;20551;-60
2021/07/10 13:43:00;;;;;;;6.47;2.17;;;31.40;44.30;;;;;;5052912;28;20025;-61
2021/07/10 13:45:27;;;;;;;4.60;2.05;;;31.40;44.10;;;;;;5054177;28;20360;-61
2021/07/10 13:48:13;;;;;;;8.50;2.38;;;31.40;44.00;;;;;;5051562;28;20040;-61
2021/07/10 13:50:41;;;;;;;5.70;2.30;;;31.40;44.10;;;;;;5036293;28;20040;-60
2021/07/10 13:53:15;;;;;;;9.00;2.85;;;31.40;44.00;;;;;;5034903;28;20554;-60
2021/07/10 13:55:43;;;;;;;5.13;2.45;;;31.40;44.00;;;;;;5035811;28;20424;-60
2021/07/10 13:58:26;;;;;;;6.38;1.88;;;31.30;44.10;;;;;;5035418;28;20413;-60
2021/07/10 14:00:53;;;;;;;6.53;1.88;;;31.20;44.10;;;;;;5035933;28;20368;-60
2021/07/10 14:03:20;;;;;;;7.45;2.40;;;31.30;44.40;;;;;;5054437;28;20036;-60
2021/07/10 14:05:46;;;;;;;7.65;2.47;;;31.30;44.60;;;;;;5052759;28;20047;-61
2021/07/10 14:08:18;;;;;;;7.88;2.05;;;31.30;44.30;;;;;;5053681;28;20025;-61
2021/07/10 14:10:49;;;;;;;7.10;2.05;;;31.30;44.40;;;;;;5050551;28;20055;-60
2021/07/10 14:13:20;;;;;;;5.80;2.22;;;31.40;44.00;;;;;;5036027;28;20028;-61
2021/07/10 14:15:49;;;;;;;5.93;2.13;;;31.30;43.80;;;;;;5035897;28;20432;-61
2021/07/10 14:18:15;;;;;;;3.80;2.30;;;31.30;43.80;;;;;;5036358;28;20059;-60
2021/07/10 14:20:45;;;;;;;5.32;2.28;;;31.30;43.80;;;;;;5053342;28;20112;-61
2021/07/10 14:23:11;;;;;;;3.85;1.80;;;31.30;43.70;;;;;;5051343;28;20040;-63
2021/07/10 14:25:37;;;;;;;4.75;1.65;;;31.40;43.80;;;;;;5035436;28;20025;-62
2021/07/10 14:28:04;;;;;;;3.38;1.67;;;31.40;43.80;;;;;;5053821;28;20029;-61
2021/07/10 14:30:31;;;;;;;5.60;2.00;;;31.50;43.60;;;;;;5053829;28;20454;-62
2021/07/10 14:32:59;;;;;;;3.55;1.70;;;31.50;43.80;;;;;;5035011;28;20037;-62
2021/07/10 14:35:28;;;;;;;6.15;2.15;;;31.50;43.90;;;;;;5035290;28;20036;-62
2021/07/10 14:37:54;;;;;;;6.85;1.98;;;31.50;43.90;;;;;;5053590;28;20036;-61
2021/07/10 14:40:23;;;;;;;5.85;2.10;;;31.50;43.90;;;;;;5035447;28;20070;-61
2021/07/10 14:42:50;;;;;;;6.63;1.90;;;31.50;43.90;;;;;;5052694;28;20033;-61
2021/07/10 14:45:17;;;;;;;3.00;1.33;;;31.50;44.00;;;;;;5035660;28;20055;-62
2021/07/10 14:47:43;;;;;;;6.22;2.17;;;31.40;44.00;;;;;;5052944;28;20025;-62
2021/07/10 14:50:12;;;;;;;10.80;3.17;;;31.40;44.30;;;;;;5052805;28;20029;-62
2021/07/10 14:52:38;;;;;;;8.32;2.40;;;31.40;44.30;;;;;;5050210;28;20033;-61
2021/07/10 14:55:06;;;;;;;8.80;2.28;;;31.30;44.20;;;;;;5045799;28;20029;-62
2021/07/10 14:57:32;;;;;;;5.80;2.55;;;31.20;44.40;;;;;;5032959;28;20040;-62